Latest Coastal Weather Observations for Barrow Island

IDW60701

Issued at 9:13 am WST Wednesday 29 March 2017 (issued every 10 minutes, with the page automatically refreshed every 10 minutes)

About coastal observations | Map of coastal stations | Coastal observations for WA | Marine services | Other Formats
Station Details ID: 005094 Name: BARROW ISLAND AIRPORT Lat: -20.87 Lon: 115.41 Height: 6.4 m
Data from the previous 72 hours. | See also: Recent months at Barrow Island
Date/Time
WST
Temp
°C
Wind Pressure Rain since
9am
mm
Weather Cloud Vis
km
Sea
Height
m
Swell
Dir  Spd
kts
Gust
kts
hPa Trend Height
m
Period
s
Dir
29/09:00am 30.4 SE 10 11 1010.7 - 0.0 - - - - - - -
29/08:30am 30.3 SE 10 12 1010.6 - 0.0 - - - - - - -
29/08:00am 29.7 ESE 8 10 1010.3 - 0.0 - - - - - - -
29/07:30am 29.1 E 9 11 1010.0 - 0.0 - - - - - - -
29/07:00am 28.4 ESE 11 14 1009.5 - 0.0 - - - - - - -
29/06:30am 28.0 ESE 13 15 1009.3 - 0.0 - - - - - - -
29/06:00am 28.0 E 12 15 1008.8 - 0.0 - - - - - - -
29/05:30am 27.6 ESE 14 16 1008.7 - 0.0 - - - - - - -
29/05:00am 27.5 SE 12 14 1008.5 - 0.0 - - - - - - -
29/04:30am 27.4 SE 13 15 1008.6 - 0.0 - - - - - - -
29/04:00am 27.6 SE 17 20 1008.7 - 0.0 - - - - - - -
29/03:30am 27.5 SSE 12 15 1008.5 - 0.0 - - - - - - -
29/03:00am 27.2 SSE 13 16 1008.4 - 0.0 - - - - - - -
29/02:30am 27.2 SSE 13 17 1008.4 - 0.0 - - - - - - -
29/02:00am 27.2 SSE 12 15 1008.9 - 0.0 - - - - - - -
29/01:30am 27.2 SSE 14 17 1009.5 - 0.0 - - - - - - -
29/01:00am 26.9 SSE 14 18 1010.0 - 0.0 - - - - - - -
29/12:30am 27.0 SSE 16 21 1010.6 - 0.0 - - - - - - -
29/12:00am 26.6 SSE 20 24 1011.4 - 0.0 - - - - - - -
 
Date/Time
WST
Temp
°C
Wind Pressure Rain since
9am
mm
Weather Cloud Vis
km
Sea
Height
m
Swell
Dir  Spd
kts
Gust
kts
hPa Trend Height
m
Period
s
Dir
28/11:30pm 26.6 SSE 24 28 1011.3 - 0.0 - - - - - - -
28/11:00pm 26.8 SSE 18 20 1011.0 - 0.0 - - - - - - -
28/10:30pm 27.1 S 27 32 1010.9 - 0.0 - - - - - - -
28/10:24pm 27.7 S 26 31 1010.7 - 0.0 - - - - - - -
28/10:22pm 28.5 SSW 20 31 1010.7 - 0.0 - - - - - - -
28/10:00pm 29.3 SW 13 18 1010.4 - 0.0 - - - - - - -
28/09:30pm 29.2 WSW 11 13 1009.8 - 0.0 - - - - - - -
28/09:00pm 29.1 WSW 9 11 1010.0 - 0.0 - - - - - - -
28/08:30pm 29.1 W 7 8 1009.7 - 0.0 - - - - - - -
28/08:00pm 29.2 WNW 8 9 1009.3 - 0.0 - - - - - - -
28/07:30pm 29.5 NW 7 9 1009.0 - 0.0 - - - - - - -
28/07:00pm 29.7 NW 8 10 1008.7 - 0.0 - - - - - - -
28/06:30pm 30.4 NW 5 8 1008.4 - 0.0 - - - - - - -
28/06:00pm 31.6 WNW 6 8 1007.8 - 0.0 - - - - - - -
28/05:30pm 31.4 NE 9 10 1007.4 - 0.0 - - - - - - -
28/05:00pm 31.2 ENE 11 13 1007.4 - 0.0 - - - - - - -
28/04:30pm 31.5 NE 11 13 1007.7 - 0.0 - - - - - - -
28/04:00pm 32.0 NNE 13 15 1007.8 - 0.0 - - - - - - -
28/03:30pm 32.1 NE 14 17 1008.0 - 0.0 - - - - - - -
28/03:00pm 31.9 NE 14 17 1008.3 - 0.0 - - - - - - -
28/02:30pm 32.1 ENE 12 14 1008.6 - 0.0 - - - - - - -
28/02:00pm 32.6 NE 13 16 1008.9 - 0.0 - - - - - - -
28/01:30pm 32.4 NE 12 15 1009.2 - 0.0 - - - - - - -
28/01:00pm 32.1 NE 13 15 1009.7 - 0.0 - - - - - - -
28/12:30pm 32.0 ENE 12 14 1010.3 - 0.0 - - - - - - -
28/12:00pm 32.0 ENE 14 16 1010.7 - 0.0 - - - - - - -
28/11:30am 31.9 ENE 14 16 1010.9 - 0.0 - - - - - - -
28/11:00am 31.9 ENE 14 15 1011.0 - 0.0 - - - - - - -
28/10:30am 31.7 ENE 11 13 1011.0 - 0.0 - - - - - - -
28/10:00am 31.8 ENE 9 11 1010.9 - 0.0 - - - - - - -
28/09:30am 31.4 ENE 9 11 1010.9 - 0.0 - - - - - - -
28/09:00am 31.2 ENE 8 9 1011.0 - 0.0 - - - - - - -
28/08:30am 30.6 ENE 9 11 1011.0 - 0.0 - - - - - - -
28/08:00am 30.1 E 11 13 1010.7 - 0.0 - - - - - - -
28/07:30am 29.3 E 13 15 1010.5 - 0.0 - - - - - - -
28/07:00am 28.6 E 12 14 1010.2 - 0.0 - - - - - - -
28/06:30am 28.4 E 13 15 1010.1 - 0.0 - - - - - - -
28/06:00am 28.3 ESE 12 15 1009.8 - 0.0 - - - - - - -
28/05:30am 28.1 SE 11 14 1009.5 - 0.0 - - - - - - -
28/05:00am 28.3 SE 11 13 1009.5 - 0.0 - - - - - - -
28/04:30am 28.2 SE 12 15 1009.3 - 0.0 - - - - - - -
28/04:00am 28.3 ESE 13 16 1009.3 - 0.0 - - - - - - -
28/03:30am 28.3 ESE 13 16 1009.3 - 0.0 - - - - - - -
28/03:00am 28.5 ESE 13 15 1009.5 - 0.0 - - - - - - -
28/02:30am 28.4 ESE 12 14 1009.4 - 0.0 - - - - - - -
28/02:00am 28.5 ESE 13 16 1009.8 - 0.0 - - - - - - -
28/01:30am 28.5 ESE 14 17 1010.0 - 0.0 - - - - - - -
28/01:00am 28.5 ESE 14 17 1010.0 - 0.0 - - - - - - -
28/12:30am 28.5 ESE 14 17 1010.4 - 0.0 - - - - - - -
28/12:00am 28.2 ESE 14 17 1010.6 - 0.0 - - - - - - -
 
Date/Time
WST
Temp
°C
Wind Pressure Rain since
9am
mm
Weather Cloud Vis
km
Sea
Height
m
Swell
Dir  Spd
kts
Gust
kts
hPa Trend Height
m
Period
s
Dir
27/11:30pm 28.7 ESE 14 16 1010.6 - 0.0 - - - - - - -
27/11:00pm 28.5 ESE 14 16 1010.5 - 0.0 - - - - - - -
27/10:30pm 28.8 ESE 18 21 1010.8 - 0.0 - - - - - - -
27/10:00pm 28.6 ESE 18 21 1010.8 - 0.0 - - - - - - -
27/09:30pm 28.7 ESE 16 19 1010.7 - 0.0 - - - - - - -
27/09:00pm 29.0 ESE 17 19 1010.6 - 0.0 - - - - - - -
27/08:30pm 29.6 E 11 13 1010.3 - 0.0 - - - - - - -
27/08:00pm 29.8 E 14 16 1010.3 - 0.0 - - - - - - -
27/07:30pm 29.6 E 11 15 1010.0 - 0.0 - - - - - - -
27/07:00pm 29.4 ESE 14 20 1009.6 - 0.0 - - - - - - -
27/06:30pm 28.4 SE 24 28 1009.7 - 0.0 - - - - - - -
27/06:19pm 29.7 SE 23 27 1009.9 - 0.0 - - - - - - -
27/06:00pm 32.2 ESE 8 10 1009.7 - 0.0 - - - - - - -
27/05:30pm 32.6 SSE 5 6 1009.4 - 0.0 - - - - - - -
27/05:00pm 33.4 E 6 9 1008.2 - 0.0 - - - - - - -
27/04:30pm 33.9 E 7 9 1008.0 - 0.0 - - - - - - -
27/04:00pm 34.0 NE 12 14 1007.5 - 0.0 - - - - - - -
27/03:30pm 35.0 NE 11 15 1007.2 - 0.0 - - - - - - -
27/03:00pm 34.2 SE 5 6 1007.5 - 0.0 - - - - - - -
27/02:30pm 34.3 ENE 9 11 1007.6 - 0.0 - - - - - - -
27/02:00pm 33.7 ENE 8 9 1007.9 - 0.0 - - - - - - -
27/01:30pm 33.1 ENE 6 7 1008.3 - 0.0 - - - - - - -
27/01:00pm 33.3 E 6 7 1008.9 - 0.0 - - - - - - -
27/12:30pm 33.1 ENE 7 8 1009.6 - 0.0 - - - - - - -
27/12:00pm 32.7 E 7 8 1010.0 - 0.0 - - - - - - -
27/11:30am 32.5 ENE 6 7 1009.9 - 0.0 - - - - - - -
27/11:00am 32.4 E 5 7 1010.1 - 0.0 - - - - - - -
27/10:30am 32.2 ESE 5 7 1010.3 - 0.0 - - - - - - -
27/10:00am 32.0 SE 7 8 1010.6 - 0.0 - - - - - - -
27/09:30am 31.9 SE 6 7 1010.5 - 0.0 - - - - - - -
27/09:00am 31.3 ESE 6 7 1010.3 - 0.0 - - - - - - -
27/08:30am 30.7 SE 6 8 1009.9 - 0.0 - - - - - - -
27/08:00am 30.4 SE 7 9 1009.5 - 0.0 - - - - - - -
27/07:30am 29.8 SSE 9 10 1009.1 - 0.0 - - - - - - -
27/07:00am 29.1 SSE 9 11 1008.9 - 0.0 - - - - - - -
27/06:30am 28.4 SSE 10 11 1008.8 - 0.0 - - - - - - -
27/06:00am 27.5 SSW 5 9 1008.6 - 0.0 - - - - - - -
27/05:30am 26.6 W 3 3 1008.3 - 0.0 - - - - - - -
27/05:00am 26.7 W 4 5 1008.0 - 0.0 - - - - - - -
27/04:30am 26.6 SW 4 4 1008.0 - 0.0 - - - - - - -
27/04:00am 26.7 SW 2 3 1008.1 - 0.0 - - - - - - -
27/03:30am 26.7 CALM 0 0 1008.4 - 0.0 - - - - - - -
27/03:00am 26.9 CALM 0 0 1008.5 - 0.0 - - - - - - -
27/02:30am 27.0 CALM 0 0 1008.6 - 0.0 - - - - - - -
27/02:00am 27.0 NW 3 3 1008.6 - 0.0 - - - - - - -
27/01:30am 26.9 W 3 4 1008.7 - 0.0 - - - - - - -
27/01:00am 27.3 WSW 5 6 1009.1 - 0.0 - - - - - - -
27/12:30am 27.4 WSW 5 6 1009.4 - 0.0 - - - - - - -
27/12:00am 27.4 W 5 6 1009.8 - 0.0 - - - - - - -
 
Date/Time
WST
Temp
°C
Wind Pressure Rain since
9am
mm
Weather Cloud Vis
km
Sea
Height
m
Swell
Dir  Spd
kts
Gust
kts
hPa Trend Height
m
Period
s
Dir
26/11:30pm 27.5 WNW 6 6 1009.8 - 0.0 - - - - - - -
26/11:00pm 27.6 WNW 6 7 1009.9 - 0.0 - - - - - - -
26/10:30pm 27.7 W 7 8 1009.6 - 0.0 - - - - - - -
26/10:00pm 27.7 WNW 7 8 1009.5 - 0.0 - - - - - - -
26/09:30pm 27.9 W 6 7 1009.4 - 0.0 - - - - - - -
26/09:00pm 28.1 W 6 7 1009.1 - 0.0 - - - - - - -
26/08:30pm 28.4 WNW 6 6 1009.0 - 0.0 - - - - - - -
26/08:00pm 28.5 WNW 6 8 1008.9 - 0.0 - - - - - - -
26/07:30pm 28.6 W 7 8 1008.7 - 0.0 - - - - - - -
26/07:00pm 29.0 W 7 9 1008.4 - 0.0 - - - - - - -
26/06:30pm 29.5 W 8 9 1007.9 - 0.0 - - - - - - -
26/06:00pm 30.2 W 9 12 1007.3 - 0.0 - - - - - - -
26/05:30pm 31.3 W 10 13 1007.2 - 0.0 - - - - - - -
26/05:00pm 32.5 W 9 12 1007.1 - 0.0 - - - - - - -
26/04:30pm 32.7 WSW 10 13 1006.9 - 0.0 - - - - - - -
26/04:00pm 33.2 SSW 8 11 1006.7 - 0.0 - - - - - - -
26/03:30pm 33.0 SSW 6 8 1006.7 - 0.0 - - - - - - -
26/03:00pm 32.5 SSW 7 8 1006.6 - 0.0 - - - - - - -
26/02:30pm 31.9 SSW 8 9 1006.7 - 0.0 - - - - - - -
26/02:00pm 31.5 SSW 5 6 1006.9 - 0.0 - - - - - - -
26/01:30pm 31.2 S 6 8 1007.1 - 0.0 - - - - - - -
26/01:00pm 31.1 S 8 9 1007.4 - 0.0 - - - - - - -
26/12:30pm 31.0 SSW 8 9 1007.7 - 0.0 - - - - - - -
26/12:00pm 31.1 SSW 8 9 1008.0 - 0.0 - - - - - - -
26/11:30am 30.1 S 10 11 1008.3 - 0.0 - - - - - - -
26/11:00am 29.8 S 10 11 1008.4 - 0.0 - - - - - - -
26/10:30am 29.3 SSW 11 13 1008.6 - 0.0 - - - - - - -
26/10:00am 29.3 S 12 14 1008.7 - 0.0 - - - - - - -
26/09:30am 29.0 SSW 12 14 1008.8 - 0.0 - - - - - - -

Other Formats:

Comma delimited format used in spreadsheet applications
http://www.bom.gov.au/fwo/IDW60701/IDW60701.95304.axf

JavaScript Object Notation format (JSON) in row-major order
http://www.bom.gov.au/fwo/IDW60701/IDW60701.95304.json